createdAt,value
2022-11-04T19:50:50.520Z,23.23
2022-11-04T19:54:13.453Z,24.80
2022-11-04T19:57:06.024Z,24.93
2022-11-04T19:59:59.591Z,24.40
2022-11-04T20:02:53.023Z,24.60
2022-11-04T20:05:46.424Z,22.98
2022-11-04T20:08:40.644Z,24.10
2022-11-04T20:11:33.650Z,24.77
2022-11-04T20:14:26.097Z,23.20
2022-11-04T20:17:18.625Z,24.47
2022-11-04T20:20:11.943Z,25.23
2022-11-04T20:23:03.677Z,22.10
2022-11-04T20:25:56.069Z,24.47
2022-11-04T20:28:48.865Z,26.15
2022-11-04T20:31:41.429Z,24.23
2022-11-04T20:34:34.622Z,23.77
2022-11-04T20:37:28.116Z,25.10
2022-11-04T20:40:21.009Z,24.87
2022-11-04T20:43:12.559Z,25.43
2022-11-04T20:46:09.715Z,26.57
2022-11-04T20:49:02.967Z,24.90
2022-11-04T20:51:55.991Z,25.43
2022-11-04T20:54:47.914Z,24.93
2022-11-04T20:57:39.885Z,25.15
2022-11-04T21:00:31.915Z,26.48
2022-11-04T21:03:24.151Z,24.90
2022-11-04T21:06:16.434Z,26.82
2022-11-04T21:09:10.394Z,26.55
2022-11-04T21:12:03.267Z,27.87
2022-11-04T21:14:55.963Z,26.17
2022-11-04T21:17:47.769Z,27.95
2022-11-04T21:20:42.075Z,32.30
2022-11-04T21:23:34.358Z,30.77
2022-11-04T21:26:28.823Z,31.23
2022-11-04T21:29:22.061Z,31.83
2022-11-04T21:32:14.213Z,32.37
2022-11-04T21:35:07.615Z,31.82
2022-11-04T21:37:59.590Z,34.07
2022-11-04T21:40:51.787Z,32.42
2022-11-04T21:43:44.063Z,30.95
2022-11-04T21:46:37.205Z,31.07
2022-11-04T21:49:29.565Z,31.70
2022-11-04T21:52:22.205Z,31.83
2022-11-04T21:55:15.439Z,32.65
2022-11-04T21:58:07.428Z,32.10
2022-11-04T22:01:00.785Z,31.35
2022-11-04T22:03:54.852Z,31.53
2022-11-04T22:06:47.308Z,33.20
2022-11-04T22:09:38.954Z,31.82
2022-11-04T22:12:31.999Z,32.05
2022-11-04T22:15:37.722Z,32.90
2022-11-04T22:18:31.410Z,32.17
2022-11-04T22:21:24.761Z,32.80
2022-11-04T22:24:18.848Z,34.67
2022-11-04T22:27:11.569Z,33.63
2022-11-04T22:30:04.238Z,34.53
2022-11-04T22:32:56.612Z,35.10
2022-11-04T22:35:50.151Z,34.73
2022-11-04T22:38:43.501Z,34.27
2022-11-04T22:41:36.575Z,34.17
2022-11-04T22:44:29.064Z,35.03
2022-11-04T22:47:21.103Z,34.30
2022-11-04T22:50:13.552Z,33.98
2022-11-04T22:55:56.488Z,34.67
2022-11-04T22:58:49.500Z,32.50
2022-11-04T23:01:42.063Z,33.70
2022-11-04T23:04:34.549Z,34.07
2022-11-04T23:07:26.225Z,34.83
2022-11-04T23:10:36.211Z,34.05
2022-11-04T23:13:45.648Z,33.97
2022-11-04T23:16:57.136Z,33.33
2022-11-04T23:19:51.453Z,32.97
2022-11-04T23:23:01.061Z,33.47
2022-11-04T23:25:53.148Z,33.87
2022-11-04T23:29:02.331Z,32.98
2022-11-04T23:31:54.418Z,33.60
2022-11-04T23:35:03.597Z,33.80
2022-11-04T23:38:00.000Z,34.57
2022-11-04T23:41:12.863Z,33.03
2022-11-04T23:44:04.750Z,34.87
2022-11-04T23:47:14.936Z,35.00
2022-11-04T23:50:25.808Z,34.63
2022-11-04T23:53:37.503Z,35.80
2022-11-04T23:56:49.190Z,33.97
2022-11-04T23:59:58.837Z,34.20
